createdAt,value
2022-10-05T00:01:46.968Z,85.06
2022-10-05T00:04:21.270Z,85.24
2022-10-05T00:06:56.990Z,84.50
2022-10-05T00:09:23.647Z,84.59
2022-10-05T00:11:51.596Z,84.52
2022-10-05T00:14:23.875Z,85.19
2022-10-05T00:16:50.922Z,84.62
2022-10-05T00:19:24.069Z,84.64
2022-10-05T00:21:50.810Z,85.06
2022-10-05T00:24:20.346Z,85.13
2022-10-05T00:26:47.436Z,85.20
2022-10-05T00:29:20.872Z,85.19
2022-10-05T00:31:48.206Z,85.22
2022-10-05T00:34:16.047Z,84.40
2022-10-05T00:36:44.040Z,84.92
2022-10-05T00:39:10.936Z,85.08
2022-10-05T00:42:03.817Z,85.06
2022-10-05T00:44:49.996Z,85.55
2022-10-05T00:47:36.496Z,84.98
2022-10-05T00:53:58.411Z,84.57
2022-10-05T00:56:44.137Z,85.24
2022-10-05T00:59:43.097Z,85.27
2022-10-05T01:02:17.791Z,85.03
2022-10-05T01:04:52.772Z,85.08
2022-10-05T01:07:31.688Z,85.14
2022-10-05T01:10:29.228Z,85.36
2022-10-05T01:13:07.168Z,85.37
2022-10-05T01:15:46.180Z,85.61
2022-10-05T01:18:25.813Z,85.64
2022-10-05T01:21:06.172Z,85.77
2022-10-05T01:23:51.587Z,85.63
2022-10-05T01:26:20.159Z,85.75
2022-10-05T01:28:50.110Z,85.82
2022-10-05T01:31:26.509Z,85.96
2022-10-05T01:34:13.523Z,86.29
2022-10-05T01:36:59.811Z,85.86
2022-10-05T01:39:41.333Z,85.70
2022-10-05T01:46:00.649Z,85.41
2022-10-05T01:49:07.281Z,85.67
2022-10-05T01:51:42.916Z,85.42
2022-10-05T01:55:00.556Z,85.80
2022-10-05T01:57:55.878Z,85.69
2022-10-05T02:00:22.499Z,85.84
2022-10-05T02:06:15.924Z,86.23
2022-10-05T02:08:58.886Z,85.99
2022-10-05T02:11:58.276Z,86.16
2022-10-05T02:14:43.929Z,86.25
2022-10-05T02:17:19.269Z,86.18
2022-10-05T02:19:52.525Z,86.34
2022-10-05T02:25:17.351Z,85.94
2022-10-05T02:27:52.358Z,85.99
2022-10-05T02:30:20.022Z,86.13
2022-10-05T02:32:54.857Z,86.16
2022-10-05T02:35:25.156Z,86.62
2022-10-05T02:41:36.377Z,86.16
2022-10-05T02:44:21.814Z,86.34
2022-10-05T02:50:32.926Z,86.38
2022-10-05T02:53:06.236Z,86.37
2022-10-05T02:55:46.856Z,86.12
2022-10-05T02:58:19.281Z,85.98
2022-10-05T03:00:50.771Z,86.22
2022-10-05T03:07:09.137Z,86.28
2022-10-05T03:10:00.944Z,86.45
2022-10-05T03:12:40.846Z,86.25
2022-10-05T03:15:47.930Z,86.22
2022-10-05T03:18:30.947Z,86.39
2022-10-05T03:21:28.310Z,86.47
2022-10-05T03:24:25.618Z,86.42
2022-10-05T03:26:57.570Z,86.17
2022-10-05T03:29:55.269Z,86.48
2022-10-05T03:32:34.626Z,85.80
2022-10-05T03:35:04.214Z,86.32
2022-10-05T03:38:10.680Z,86.02
2022-10-05T03:41:20.006Z,85.82
2022-10-05T03:47:01.974Z,85.80
2022-10-05T03:53:06.659Z,85.44
2022-10-05T03:55:57.659Z,85.44
2022-10-05T03:58:40.531Z,85.55
2022-10-05T04:01:13.647Z,84.86
2022-10-05T04:04:00.769Z,84.72
2022-10-05T04:09:20.909Z,85.22
2022-10-05T04:11:54.888Z,84.77
2022-10-05T04:15:18.817Z,84.91
2022-10-05T04:17:22.000Z,84.93
2022-10-05T04:20:04.472Z,84.73
2022-10-05T04:22:37.960Z,84.49
2022-10-05T04:25:18.404Z,84.49
2022-10-05T04:28:00.580Z,84.21
2022-10-05T04:30:59.279Z,84.27
2022-10-05T04:33:50.002Z,84.55
2022-10-05T04:36:27.938Z,84.53
2022-10-05T04:39:13.700Z,83.88
2022-10-05T04:42:11.673Z,84.00
2022-10-05T04:48:07.503Z,83.58
2022-10-05T04:51:13.652Z,83.97
2022-10-05T04:54:12.223Z,84.43
2022-10-05T04:56:54.506Z,84.08
2022-10-05T05:00:07.439Z,84.23
2022-10-05T05:03:22.749Z,84.38
2022-10-05T05:06:17.765Z,84.07
2022-10-05T05:08:53.469Z,83.98
2022-10-05T05:11:34.146Z,83.85
2022-10-05T05:14:09.170Z,83.35
2022-10-05T05:16:42.133Z,82.50
2022-10-05T05:19:27.494Z,81.71
2022-10-05T05:22:27.177Z,82.55
2022-10-05T05:25:04.578Z,81.79
2022-10-05T05:27:46.852Z,81.84
2022-10-05T05:30:23.055Z,81.94
2022-10-05T05:33:22.523Z,81.90
2022-10-05T05:36:10.225Z,82.62
2022-10-05T05:38:52.634Z,82.35
2022-10-05T05:41:56.026Z,82.35
2022-10-05T05:44:25.143Z,82.18
2022-10-05T05:47:04.038Z,82.50
2022-10-05T05:49:50.285Z,82.76
2022-10-05T05:52:24.285Z,82.50
2022-10-05T05:54:58.313Z,82.32
2022-10-05T05:57:38.452Z,82.62
2022-10-05T06:00:30.173Z,83.08
2022-10-05T06:03:23.243Z,83.19
2022-10-05T06:05:56.762Z,82.99
2022-10-05T06:08:43.507Z,83.29
2022-10-05T06:11:18.204Z,83.37
2022-10-05T06:13:45.114Z,83.26
2022-10-05T06:16:14.987Z,83.48
2022-10-05T06:18:46.763Z,83.74
2022-10-05T06:21:27.565Z,83.69
2022-10-05T06:24:04.364Z,83.16
2022-10-05T06:26:56.721Z,83.49
2022-10-05T06:29:28.787Z,83.44
2022-10-05T06:32:13.779Z,83.29
2022-10-05T06:34:56.520Z,82.77
2022-10-05T06:37:33.079Z,83.07
2022-10-05T06:40:28.135Z,83.43
2022-10-05T06:43:09.017Z,83.56
2022-10-05T06:45:53.240Z,83.54
2022-10-05T06:48:41.744Z,82.99
2022-10-05T06:51:23.354Z,82.86
2022-10-05T06:54:04.757Z,83.03
2022-10-05T06:56:49.528Z,82.96
2022-10-05T06:59:23.874Z,83.59
2022-10-05T07:02:10.241Z,82.20
2022-10-05T07:04:54.679Z,82.59
2022-10-05T07:07:46.630Z,83.05
2022-10-05T07:10:47.643Z,83.20
2022-10-05T07:13:36.667Z,83.16
2022-10-05T07:16:17.798Z,83.00
2022-10-05T07:18:57.403Z,82.97
2022-10-05T07:21:30.527Z,82.93
2022-10-05T07:24:13.058Z,82.70
2022-10-05T07:26:45.666Z,82.40
2022-10-05T07:29:25.210Z,83.04
2022-10-05T07:32:04.463Z,83.21
2022-10-05T07:34:47.761Z,82.86
2022-10-05T07:37:39.308Z,83.52
2022-10-05T07:40:15.188Z,83.61
2022-10-05T07:42:56.552Z,83.59
2022-10-05T07:45:29.790Z,83.44
2022-10-05T07:47:59.495Z,83.60
2022-10-05T07:50:30.101Z,83.79
2022-10-05T07:53:02.657Z,83.94
2022-10-05T07:55:37.116Z,83.06
2022-10-05T07:58:30.887Z,82.96
2022-10-05T08:01:07.689Z,82.91
2022-10-05T08:03:44.718Z,82.70
2022-10-05T08:06:27.948Z,82.68
2022-10-05T08:09:00.650Z,82.23
2022-10-05T08:11:33.170Z,82.52
2022-10-05T08:14:06.332Z,82.51
2022-10-05T08:16:37.974Z,82.50
2022-10-05T08:19:19.041Z,82.43
2022-10-05T08:21:51.969Z,82.37
2022-10-05T08:24:53.059Z,82.24
2022-10-05T08:28:09.245Z,81.92
2022-10-05T08:31:20.795Z,82.43
2022-10-05T08:33:55.455Z,82.03
2022-10-05T08:36:31.415Z,81.39
2022-10-05T08:39:03.978Z,82.02
2022-10-05T08:41:46.487Z,81.75
2022-10-05T08:44:57.705Z,81.27
2022-10-05T08:47:40.442Z,81.09
2022-10-05T08:50:15.961Z,81.43
2022-10-05T08:53:07.974Z,80.76
2022-10-05T08:55:36.445Z,81.16
2022-10-05T08:58:40.096Z,80.88
2022-10-05T09:01:21.175Z,81.48
2022-10-05T09:04:07.485Z,80.68
2022-10-05T09:06:53.639Z,80.71
2022-10-05T09:09:21.083Z,80.09
2022-10-05T09:12:01.172Z,80.70
2022-10-05T09:15:20.821Z,80.30
2022-10-05T09:18:33.482Z,80.62
2022-10-05T09:21:20.789Z,81.01
2022-10-05T09:23:57.544Z,80.57
2022-10-05T09:26:45.168Z,80.25
2022-10-05T09:29:29.304Z,79.64
2022-10-05T09:32:12.930Z,79.56
2022-10-05T09:34:47.736Z,78.92
2022-10-05T09:37:28.417Z,77.72
2022-10-05T09:40:08.469Z,78.08
2022-10-05T09:42:56.472Z,78.92
2022-10-05T09:45:40.772Z,77.99
2022-10-05T09:48:15.456Z,77.91
2022-10-05T09:51:00.228Z,78.63
2022-10-05T09:54:06.734Z,77.33
2022-10-05T09:56:51.850Z,76.79
2022-10-05T09:59:48.802Z,77.72
2022-10-05T10:02:20.767Z,78.12
2022-10-05T10:05:05.642Z,77.76
2022-10-05T10:07:51.633Z,77.37
2022-10-05T10:10:39.328Z,77.50
2022-10-05T10:13:28.500Z,77.15
2022-10-05T10:16:09.546Z,77.09
2022-10-05T10:18:52.601Z,77.68
2022-10-05T10:21:42.311Z,77.47
2022-10-05T10:24:42.671Z,77.57
2022-10-05T10:27:16.574Z,77.42
2022-10-05T10:29:43.040Z,77.75
2022-10-05T10:32:30.528Z,77.01
2022-10-05T10:35:22.354Z,77.34
2022-10-05T10:37:53.881Z,77.95
2022-10-05T10:40:46.641Z,77.83
2022-10-05T10:43:36.287Z,77.73
2022-10-05T10:46:53.038Z,78.14
2022-10-05T10:50:17.136Z,78.40
2022-10-05T10:53:37.692Z,78.12
2022-10-05T10:56:38.919Z,77.94
2022-10-05T10:59:35.362Z,78.47
2022-10-05T11:14:04.512Z,78.27
2022-10-05T11:17:03.219Z,78.18
2022-10-05T11:20:05.027Z,78.26
2022-10-05T11:22:53.460Z,78.40
2022-10-05T11:25:48.883Z,78.25
2022-10-05T11:28:33.569Z,78.31
2022-10-05T11:31:25.272Z,77.84
2022-10-05T11:33:56.830Z,77.26
2022-10-05T11:36:49.296Z,78.14
2022-10-05T11:39:29.817Z,78.22
2022-10-05T11:42:42.076Z,77.75
2022-10-05T11:45:21.557Z,78.24
2022-10-05T11:48:07.413Z,77.95
2022-10-05T11:50:52.737Z,78.06
2022-10-05T11:53:29.539Z,78.15
2022-10-05T11:56:09.485Z,77.68
2022-10-05T11:58:54.282Z,76.69
2022-10-05T12:01:34.787Z,77.04
2022-10-05T12:04:20.623Z,76.38
2022-10-05T12:06:56.159Z,76.18
2022-10-05T12:09:28.807Z,76.87
2022-10-05T12:12:04.035Z,76.05
2022-10-05T12:14:39.634Z,76.70
2022-10-05T12:17:23.809Z,76.23
2022-10-05T12:19:57.979Z,75.11
2022-10-05T12:22:34.543Z,76.40
2022-10-05T12:25:26.624Z,75.75
2022-10-05T12:27:58.536Z,75.17
2022-10-05T12:30:33.597Z,75.06
2022-10-05T12:33:02.380Z,75.64
2022-10-05T12:35:48.325Z,74.77
2022-10-05T12:38:25.544Z,73.88
2022-10-05T12:41:14.411Z,73.65
2022-10-05T12:44:08.033Z,73.64
2022-10-05T12:46:46.784Z,72.78
2022-10-05T12:49:28.533Z,73.16
2022-10-05T12:51:59.197Z,73.28
2022-10-05T12:54:41.751Z,73.37
2022-10-05T12:57:15.244Z,72.55
2022-10-05T12:59:52.058Z,73.49
2022-10-05T13:02:30.301Z,73.56
2022-10-05T13:05:09.133Z,73.33
2022-10-05T13:07:51.143Z,73.51
2022-10-05T13:10:19.711Z,73.74
2022-10-05T13:13:34.261Z,74.03
2022-10-05T13:16:17.108Z,73.57
2022-10-05T13:19:21.556Z,74.50
2022-10-05T13:22:03.673Z,73.79
2022-10-05T13:24:37.906Z,74.37
2022-10-05T13:27:13.764Z,73.83
2022-10-05T13:29:50.981Z,73.71
2022-10-05T13:32:25.803Z,73.17
2022-10-05T13:35:11.782Z,73.73
2022-10-05T13:37:50.475Z,73.45
2022-10-05T13:40:37.362Z,73.95
2022-10-05T13:43:28.260Z,74.71
2022-10-05T13:46:05.396Z,74.90
2022-10-05T13:48:36.034Z,73.88
2022-10-05T13:51:13.105Z,73.64
2022-10-05T13:54:11.622Z,73.81
2022-10-05T13:56:44.982Z,73.21
2022-10-05T13:59:12.467Z,74.68
2022-10-05T14:01:44.344Z,73.06
2022-10-05T14:04:21.088Z,74.05
2022-10-05T14:06:49.095Z,74.28
2022-10-05T14:09:19.650Z,72.27
2022-10-05T14:11:50.994Z,71.18
2022-10-05T14:14:45.175Z,71.94
2022-10-05T14:17:32.998Z,71.90
2022-10-05T14:20:03.049Z,71.34
2022-10-05T14:22:29.663Z,71.55
2022-10-05T14:25:16.268Z,72.02
2022-10-05T14:27:53.085Z,71.05
2022-10-05T14:30:23.830Z,69.35
2022-10-05T14:32:55.950Z,69.60
2022-10-05T14:35:25.782Z,69.64
2022-10-05T14:38:16.457Z,70.48
2022-10-05T14:40:44.135Z,70.31
2022-10-05T14:43:14.716Z,69.20
2022-10-05T14:46:03.443Z,69.44
2022-10-05T14:48:42.395Z,70.11
2022-10-05T14:51:13.131Z,70.17
2022-10-05T14:53:44.395Z,69.79
2022-10-05T14:56:41.342Z,70.26
2022-10-05T14:59:29.358Z,69.57
2022-10-05T15:02:45.175Z,69.10
2022-10-05T15:11:08.951Z,69.11
2022-10-05T15:13:41.642Z,69.51
2022-10-05T15:16:18.152Z,69.74
2022-10-05T15:18:49.338Z,70.10
2022-10-05T15:21:24.007Z,70.31
2022-10-05T15:23:57.484Z,70.73
2022-10-05T15:26:36.225Z,70.38
2022-10-05T15:29:17.993Z,70.34
2022-10-05T15:31:55.439Z,69.84
2022-10-05T15:34:41.742Z,71.07
2022-10-05T15:37:16.146Z,72.17
2022-10-05T15:39:58.293Z,72.00
2022-10-05T15:42:38.233Z,71.46
2022-10-05T15:45:28.483Z,71.40
2022-10-05T15:48:07.949Z,71.29
2022-10-05T15:50:47.989Z,71.77
2022-10-05T15:53:22.177Z,72.01
2022-10-05T15:56:02.165Z,71.99
2022-10-05T15:58:40.864Z,72.44
2022-10-05T16:01:12.933Z,72.50
2022-10-05T16:03:45.787Z,72.90
2022-10-05T16:06:38.272Z,72.09
2022-10-05T16:09:33.558Z,71.76
2022-10-05T16:12:14.176Z,72.25
2022-10-05T16:15:01.761Z,71.71
2022-10-05T16:17:30.232Z,70.36
2022-10-05T16:20:25.213Z,70.67
2022-10-05T16:22:59.558Z,70.68
2022-10-05T16:25:49.220Z,70.92
2022-10-05T16:28:39.799Z,70.51
2022-10-05T16:31:22.239Z,71.24
2022-10-05T16:34:09.408Z,71.04
2022-10-05T16:36:58.500Z,71.14
2022-10-05T16:39:38.104Z,72.01
2022-10-05T16:42:17.175Z,72.18
2022-10-05T16:44:57.142Z,72.03
2022-10-05T16:47:45.118Z,72.21
2022-10-05T16:50:17.581Z,72.41
2022-10-05T16:52:49.109Z,72.28
2022-10-05T16:55:32.139Z,72.64
2022-10-05T16:58:04.286Z,72.73
2022-10-05T17:00:51.970Z,73.32
2022-10-05T17:03:24.674Z,73.01
2022-10-05T17:06:18.446Z,73.22
2022-10-05T17:09:02.160Z,73.00
2022-10-05T17:11:39.154Z,73.31
2022-10-05T17:14:23.163Z,73.40
2022-10-05T17:17:16.048Z,73.53
2022-10-05T17:19:48.021Z,73.45
2022-10-05T17:22:54.354Z,73.90
2022-10-05T17:25:32.179Z,74.52
2022-10-05T17:28:24.517Z,73.95
2022-10-05T17:31:19.110Z,73.68
2022-10-05T17:33:58.916Z,74.04
2022-10-05T17:36:42.966Z,74.47
2022-10-05T17:39:15.392Z,74.10
2022-10-05T17:41:42.986Z,74.91
2022-10-05T17:44:13.597Z,75.12
2022-10-05T17:46:46.019Z,74.87
2022-10-05T17:49:38.967Z,75.05
2022-10-05T17:52:39.071Z,75.47
2022-10-05T17:55:34.149Z,75.80
2022-10-05T17:58:27.700Z,75.58
2022-10-05T18:01:13.629Z,75.50
2022-10-05T18:03:43.660Z,75.79
2022-10-05T18:06:28.431Z,75.70
2022-10-05T18:09:21.910Z,75.63
2022-10-05T18:12:11.661Z,75.45
2022-10-05T18:14:55.552Z,75.93
2022-10-05T18:17:45.161Z,75.83
2022-10-05T18:20:27.046Z,75.87
2022-10-05T18:23:01.593Z,76.11
2022-10-05T18:25:41.731Z,76.26
2022-10-05T18:28:26.931Z,76.00
2022-10-05T18:31:11.043Z,76.16
2022-10-05T18:33:53.466Z,76.30
2022-10-05T18:36:33.096Z,76.21
2022-10-05T18:39:18.767Z,76.28
2022-10-05T18:41:57.924Z,76.54
2022-10-05T18:44:36.394Z,76.46
2022-10-05T18:47:03.860Z,76.90
2022-10-05T18:49:58.444Z,76.69
2022-10-05T18:52:26.340Z,77.05
2022-10-05T18:55:11.156Z,76.94
2022-10-05T18:57:55.948Z,77.00
2022-10-05T19:00:24.826Z,77.05
2022-10-05T19:02:58.797Z,77.61
2022-10-05T19:05:57.549Z,77.14
2022-10-05T19:08:46.637Z,77.43
2022-10-05T19:11:30.672Z,77.18
2022-10-05T19:14:15.960Z,77.34
2022-10-05T19:20:38.507Z,78.43
2022-10-05T19:23:17.416Z,78.95
2022-10-05T19:26:14.975Z,78.79
2022-10-05T19:28:56.137Z,79.28
2022-10-05T19:31:53.892Z,79.26
2022-10-05T19:34:54.657Z,79.56
2022-10-05T19:37:35.441Z,79.57
2022-10-05T19:40:21.896Z,79.98
2022-10-05T19:43:26.253Z,80.15
2022-10-05T19:49:10.622Z,82.72
2022-10-05T19:51:49.904Z,83.48
2022-10-05T19:54:25.306Z,82.95
2022-10-05T19:56:54.297Z,83.95
2022-10-05T19:59:25.356Z,84.07
2022-10-05T20:01:54.784Z,84.43
2022-10-05T20:04:41.931Z,84.64
2022-10-05T20:07:38.944Z,85.10
2022-10-05T20:11:10.955Z,85.06
2022-10-05T20:14:19.443Z,85.17
2022-10-05T20:17:52.135Z,85.80
2022-10-05T20:20:48.478Z,86.01
2022-10-05T20:24:38.661Z,86.50
2022-10-05T20:30:44.624Z,87.79
2022-10-05T20:52:51.373Z,88.87
2022-10-05T20:58:50.955Z,89.45
2022-10-05T21:01:34.437Z,89.49
2022-10-05T21:04:04.150Z,89.43
2022-10-05T21:06:35.461Z,89.77
2022-10-05T21:09:31.158Z,89.80
2022-10-05T21:25:02.584Z,87.66
2022-10-05T21:27:41.206Z,87.89
2022-10-05T21:35:47.817Z,88.14
2022-10-05T21:38:14.564Z,88.15
2022-10-05T21:40:43.429Z,88.32
2022-10-05T21:43:12.693Z,88.42
2022-10-05T21:45:44.278Z,88.30
2022-10-05T21:48:13.254Z,88.15
2022-10-05T21:50:40.407Z,88.27
2022-10-05T21:53:11.569Z,87.65
2022-10-05T21:55:41.444Z,88.04
2022-10-05T21:58:08.638Z,87.41
2022-10-05T22:00:37.793Z,87.74
2022-10-05T22:05:50.738Z,88.50
2022-10-05T22:08:24.645Z,88.06
2022-10-05T22:11:07.830Z,87.98
2022-10-05T22:14:02.793Z,88.02
2022-10-05T22:16:33.780Z,87.75
2022-10-05T22:19:05.993Z,87.89
2022-10-05T22:21:51.736Z,87.78
2022-10-05T22:24:21.483Z,88.36
2022-10-05T22:26:51.560Z,88.32
2022-10-05T22:29:18.830Z,88.70
2022-10-05T22:31:48.765Z,88.97
2022-10-05T22:34:16.816Z,88.96
2022-10-05T22:36:49.369Z,88.99
2022-10-05T22:39:17.207Z,89.07
2022-10-05T22:41:47.393Z,89.35
2022-10-05T22:44:13.970Z,89.69
2022-10-05T22:46:40.718Z,89.41
2022-10-05T22:49:07.342Z,89.72
2022-10-05T22:51:34.271Z,89.63
2022-10-05T22:54:02.149Z,89.64
2022-10-05T22:59:26.464Z,89.72
2022-10-05T23:01:55.914Z,89.83
2022-10-05T23:04:22.624Z,90.05
2022-10-05T23:06:49.278Z,89.96
2022-10-05T23:09:18.873Z,89.94
2022-10-05T23:11:46.667Z,89.73
2022-10-05T23:14:16.835Z,90.00
2022-10-05T23:16:43.541Z,89.73
2022-10-05T23:19:10.640Z,89.88
2022-10-05T23:21:37.218Z,89.48
2022-10-05T23:24:04.586Z,89.73
2022-10-05T23:26:32.655Z,89.53
2022-10-05T23:28:59.179Z,89.80
2022-10-05T23:31:30.277Z,89.58
2022-10-05T23:33:56.910Z,89.54
2022-10-05T23:36:47.649Z,89.75
2022-10-05T23:39:47.354Z,89.97
2022-10-05T23:42:14.571Z,89.37
2022-10-05T23:44:41.059Z,89.04
2022-10-05T23:47:07.675Z,88.92
2022-10-05T23:49:56.952Z,88.98
2022-10-05T23:52:26.423Z,89.28
2022-10-05T23:55:28.860Z,89.00
2022-10-05T23:57:55.619Z,89.09
